Time;durP1;ratioP1;P1;durP2;ratioP2;P2;SDS_P1;SDS_P2;PMS_P1;PMS_P2;Temp;Humidity;BMP_temperature;BMP_pressure;BME280_temperature;BME280_humidity;BME280_pressure;Samples;Min_cycle;Max_cycle;Signal;HPM_P1;HPM_P2
2023/06/27 00:01:04;;;;;;;4.22;1.80;;;13.60;68.30;;;;;;5040998;28;20098;-60
2023/06/27 00:03:33;;;;;;;4.35;1.80;;;13.60;68.30;;;;;;5029417;28;20489;-60
2023/06/27 00:06:00;;;;;;;4.47;2.00;;;13.60;68.60;;;;;;5037106;28;20486;-61
2023/06/27 00:08:30;;;;;;;3.67;1.95;;;13.70;68.60;;;;;;5036061;28;20447;-62
2023/06/27 00:10:56;;;;;;;7.60;2.10;;;13.80;68.80;;;;;;5033330;28;20521;-61
2023/06/27 00:13:21;;;;;;;6.25;2.08;;;13.80;68.80;;;;;;5032637;28;20124;-60
2023/06/27 00:15:52;;;;;;;4.35;2.10;;;13.80;69.00;;;;;;5035688;28;20044;-60
2023/06/27 00:18:21;;;;;;;4.25;2.35;;;13.80;69.00;;;;;;5031273;28;20044;-61
2023/06/27 00:20:48;;;;;;;5.60;2.10;;;13.90;69.00;;;;;;5026380;28;20049;-61
2023/06/27 00:23:17;;;;;;;5.28;2.03;;;13.80;69.10;;;;;;5034515;28;20040;-62
2023/06/27 00:25:44;;;;;;;5.15;1.80;;;13.80;69.50;;;;;;5049328;28;20528;-60
2023/06/27 00:28:10;;;;;;;4.82;1.98;;;13.70;69.50;;;;;;5047948;28;20037;-61
2023/06/27 00:30:35;;;;;;;5.80;2.00;;;13.70;69.80;;;;;;5043478;28;20095;-60
2023/06/27 00:33:01;;;;;;;6.13;2.00;;;13.60;69.90;;;;;;5039745;28;20041;-60
2023/06/27 00:35:26;;;;;;;4.93;2.10;;;13.60;70.10;;;;;;5027158;28;20063;-61
2023/06/27 00:37:53;;;;;;;6.05;2.00;;;13.60;70.30;;;;;;5038430;28;20056;-60
2023/06/27 00:40:18;;;;;;;5.47;1.85;;;13.50;70.40;;;;;;5049466;28;20052;-61
2023/06/27 00:42:44;;;;;;;3.15;1.90;;;13.50;70.60;;;;;;5048234;28;20041;-60
2023/06/27 00:45:10;;;;;;;3.97;2.05;;;13.50;70.70;;;;;;5038165;28;20048;-60
2023/06/27 00:47:35;;;;;;;5.50;2.53;;;13.50;70.90;;;;;;5033364;28;20429;-61
2023/06/27 00:50:01;;;;;;;5.18;2.08;;;13.40;70.90;;;;;;5043713;28;20134;-60
2023/06/27 00:52:27;;;;;;;5.95;1.83;;;13.40;71.00;;;;;;5036314;28;20876;-61
2023/06/27 00:54:53;;;;;;;4.32;1.95;;;13.30;71.10;;;;;;5042877;28;20119;-60
2023/06/27 00:57:19;;;;;;;3.20;1.80;;;13.30;71.30;;;;;;5034143;28;20155;-64
2023/06/27 00:59:45;;;;;;;2.50;1.95;;;13.20;71.30;;;;;;5035785;28;20144;-60
2023/06/27 01:02:11;;;;;;;4.55;1.88;;;13.20;71.40;;;;;;5034978;28;20598;-61
2023/06/27 01:04:39;;;;;;;3.10;2.20;;;13.20;71.60;;;;;;5031846;28;20488;-61
2023/06/27 01:07:09;;;;;;;5.00;1.80;;;13.20;71.80;;;;;;5039055;28;20047;-62
2023/06/27 01:09:43;;;;;;;4.63;2.40;;;13.20;71.90;;;;;;5036480;28;20041;-61
2023/06/27 01:12:15;;;;;;;5.00;1.98;;;13.20;72.10;;;;;;5035026;28;20049;-61
2023/06/27 01:14:45;;;;;;;6.03;2.05;;;13.10;72.00;;;;;;5035334;28;20154;-60
2023/06/27 01:17:12;;;;;;;6.45;2.13;;;13.20;71.90;;;;;;5038442;28;20437;-61
2023/06/27 01:19:38;;;;;;;3.53;1.95;;;13.10;72.00;;;;;;5025977;28;20033;-61
2023/06/27 01:22:08;;;;;;;6.53;2.58;;;13.10;72.20;;;;;;5031279;28;20056;-61
2023/06/27 01:24:36;;;;;;;5.65;2.22;;;13.10;72.40;;;;;;5036295;28;20041;-61
2023/06/27 01:27:02;;;;;;;8.45;2.53;;;13.10;72.40;;;;;;5036245;28;20052;-62
2023/06/27 01:29:29;;;;;;;5.43;2.20;;;13.10;72.60;;;;;;5035178;28;20032;-60
2023/06/27 01:32:19;;;;;;;5.30;2.13;;;13.10;72.70;;;;;;5030583;28;20135;-60
2023/06/27 01:35:00;;;;;;;4.53;2.08;;;13.00;73.80;;;;;;5033834;28;20075;-61
2023/06/27 01:37:29;;;;;;;5.70;2.28;;;13.00;73.30;;;;;;5036476;28;20061;-61
2023/06/27 01:40:09;;;;;;;3.97;2.45;;;13.00;73.10;;;;;;5040903;28;20064;-62
2023/06/27 01:42:40;;;;;;;2.65;2.00;;;13.00;73.60;;;;;;5021522;28;20100;-61
2023/06/27 01:45:07;;;;;;;4.68;2.47;;;13.10;73.50;;;;;;5042765;28;20044;-62
2023/06/27 01:47:37;;;;;;;8.18;2.58;;;13.10;73.50;;;;;;5044897;28;20092;-61
2023/06/27 01:50:03;;;;;;;4.05;2.47;;;13.10;73.60;;;;;;5037210;28;20049;-61
2023/06/27 01:52:29;;;;;;;5.35;2.38;;;13.10;73.70;;;;;;5038178;28;20045;-62
2023/06/27 01:54:55;;;;;;;4.82;2.30;;;13.10;74.00;;;;;;5036238;28;20442;-61
2023/06/27 01:57:20;;;;;;;4.05;2.10;;;13.10;74.10;;;;;;5039864;28;20052;-62
2023/06/27 01:59:46;;;;;;;6.65;2.60;;;13.10;74.10;;;;;;5036819;28;20971;-61
2023/06/27 02:02:12;;;;;;;6.07;2.58;;;13.10;74.10;;;;;;5027912;28;20052;-61
2023/06/27 02:04:37;;;;;;;3.70;2.40;;;13.00;74.20;;;;;;5038158;28;20154;-61
2023/06/27 02:07:03;;;;;;;4.00;2.15;;;13.00;74.30;;;;;;5036246;28;20052;-61
2023/06/27 02:09:28;;;;;;;5.18;2.20;;;13.00;74.60;;;;;;5043487;28;20091;-61
2023/06/27 02:11:54;;;;;;;6.22;2.35;;;13.00;74.60;;;;;;5035404;28;20037;-61
2023/06/27 02:14:20;;;;;;;7.18;2.70;;;13.00;74.60;;;;;;5035697;28;20128;-61
2023/06/27 02:16:45;;;;;;;7.40;2.70;;;13.00;74.70;;;;;;5043332;28;20144;-61
2023/06/27 02:19:11;;;;;;;3.50;2.30;;;13.00;74.80;;;;;;5040103;28;20033;-61
2023/06/27 02:21:37;;;;;;;4.60;2.13;;;13.00;74.90;;;;;;5034237;28;20043;-61
2023/06/27 02:24:03;;;;;;;4.80;2.30;;;13.00;75.00;;;;;;5037915;28;20033;-62
2023/06/27 02:26:28;;;;;;;4.53;2.55;;;13.00;75.20;;;;;;5034205;28;20033;-62
2023/06/27 02:28:54;;;;;;;5.18;2.50;;;13.00;75.30;;;;;;5040075;28;20034;-61
2023/06/27 02:31:20;;;;;;;3.13;2.13;;;13.00;75.60;;;;;;5037525;28;20095;-62
2023/06/27 02:33:45;;;;;;;6.25;2.30;;;13.00;75.60;;;;;;5042428;28;20040;-62
2023/06/27 02:36:11;;;;;;;3.42;2.13;;;13.10;75.80;;;;;;5043221;28;20072;-61
2023/06/27 02:38:39;;;;;;;5.15;2.42;;;13.10;75.80;;;;;;5043569;28;20143;-62
2023/06/27 02:41:05;;;;;;;5.10;2.65;;;13.10;75.80;;;;;;5037170;28;20083;-62
2023/06/27 02:43:30;;;;;;;4.93;2.63;;;13.20;75.90;;;;;;5037530;28;20060;-61
2023/06/27 02:45:57;;;;;;;3.50;2.00;;;13.10;75.90;;;;;;5037524;28;20499;-61
2023/06/27 02:48:22;;;;;;;5.88;2.50;;;13.20;76.10;;;;;;5042006;28;20053;-60
2023/06/27 02:50:50;;;;;;;3.72;2.33;;;13.10;76.30;;;;;;5045166;28;20746;-61
2023/06/27 02:53:17;;;;;;;5.22;2.17;;;13.10;76.20;;;;;;5036234;28;20110;-61
2023/06/27 02:55:43;;;;;;;6.90;2.80;;;13.20;76.50;;;;;;5045760;28;20040;-61
2023/06/27 02:58:08;;;;;;;8.30;3.00;;;13.20;76.60;;;;;;5039676;28;20044;-61
2023/06/27 03:00:34;;;;;;;5.00;2.50;;;13.30;76.40;;;;;;5029005;28;20397;-62
2023/06/27 03:03:00;;;;;;;4.22;2.47;;;13.30;76.30;;;;;;5028882;28;20059;-61
2023/06/27 03:05:25;;;;;;;6.55;2.97;;;13.30;76.40;;;;;;5039443;28;20036;-64
2023/06/27 03:07:51;;;;;;;5.50;2.47;;;13.30;76.50;;;;;;5040271;28;20658;-61
2023/06/27 03:10:16;;;;;;;5.25;2.55;;;13.30;76.50;;;;;;5040212;28;20087;-61
2023/06/27 03:12:42;;;;;;;8.25;3.20;;;13.30;76.60;;;;;;5040478;28;20045;-60
2023/06/27 03:15:08;;;;;;;5.78;2.67;;;13.30;76.80;;;;;;5034441;28;20123;-61
2023/06/27 03:17:33;;;;;;;5.15;2.88;;;13.30;77.00;;;;;;5040441;28;20037;-61
2023/06/27 03:19:59;;;;;;;5.78;2.60;;;13.30;76.80;;;;;;5039550;28;20060;-61
2023/06/27 03:22:24;;;;;;;4.75;2.85;;;13.30;77.00;;;;;;5040210;28;20044;-62
2023/06/27 03:24:50;;;;;;;5.53;2.80;;;13.30;77.10;;;;;;5036271;28;20067;-61
2023/06/27 03:27:17;;;;;;;4.18;2.50;;;13.40;77.00;;;;;;5037046;28;20110;-62
2023/06/27 03:29:43;;;;;;;7.85;2.90;;;13.30;77.10;;;;;;5035091;28;20057;-60
2023/06/27 03:32:10;;;;;;;5.30;2.67;;;13.40;77.50;;;;;;5035913;28;20095;-62
2023/06/27 03:34:36;;;;;;;4.18;2.80;;;13.40;77.40;;;;;;5030149;28;20088;-61
2023/06/27 03:37:02;;;;;;;4.47;2.78;;;13.30;77.70;;;;;;5041166;28;20063;-61
2023/06/27 03:39:28;;;;;;;4.40;2.67;;;13.30;77.70;;;;;;5047666;28;20108;-62
2023/06/27 03:41:54;;;;;;;6.55;3.45;;;13.30;77.80;;;;;;5043064;28;20083;-61
2023/06/27 03:44:19;;;;;;;10.60;2.85;;;13.30;77.80;;;;;;5034696;28;20041;-61
2023/06/27 03:46:45;;;;;;;5.25;3.20;;;13.30;77.80;;;;;;5041783;28;20465;-61
2023/06/27 03:49:11;;;;;;;5.97;3.30;;;13.30;78.30;;;;;;5034371;28;20110;-61
2023/06/27 03:51:40;;;;;;;6.40;3.20;;;13.30;78.40;;;;;;5036621;28;20048;-61
2023/06/27 03:54:06;;;;;;;8.10;3.65;;;13.30;78.80;;;;;;5039281;28;20388;-62
2023/06/27 03:56:32;;;;;;;5.15;3.03;;;13.30;78.60;;;;;;5037153;28;20468;-61
2023/06/27 03:58:58;;;;;;;3.90;3.20;;;13.30;78.90;;;;;;5043958;28;20029;-62
2023/06/27 04:01:23;;;;;;;3.95;2.63;;;13.30;78.70;;;;;;5032138;28;22331;-61
2023/06/27 04:03:49;;;;;;;6.38;2.97;;;13.30;79.00;;;;;;5042977;28;20033;-61
2023/06/27 04:06:15;;;;;;;5.70;3.40;;;13.30;79.00;;;;;;5036579;28;20183;-61
2023/06/27 04:08:40;;;;;;;7.93;3.33;;;13.40;79.10;;;;;;5043172;28;20033;-61
2023/06/27 04:11:06;;;;;;;6.75;3.42;;;13.40;79.20;;;;;;5037928;28;20055;-61
2023/06/27 04:13:31;;;;;;;8.68;3.10;;;13.50;79.10;;;;;;5025011;28;20041;-61
2023/06/27 04:15:57;;;;;;;6.25;3.45;;;13.60;79.30;;;;;;5036033;28;20060;-61
2023/06/27 04:18:22;;;;;;;7.15;3.13;;;13.60;79.20;;;;;;5032124;28;20440;-61
2023/06/27 04:20:48;;;;;;;8.85;3.45;;;13.70;79.40;;;;;;5040092;28;20041;-61
2023/06/27 04:23:14;;;;;;;7.15;3.60;;;13.70;79.40;;;;;;5035887;28;20032;-61
2023/06/27 04:25:44;;;;;;;8.65;3.58;;;13.80;79.30;;;;;;5032945;28;20041;-62
2023/06/27 04:28:10;;;;;;;4.53;3.08;;;13.90;79.40;;;;;;5031567;28;20132;-62
2023/06/27 04:30:35;;;;;;;9.40;3.40;;;13.90;79.50;;;;;;5029395;28;20412;-61
2023/06/27 04:33:03;;;;;;;7.22;3.53;;;13.90;79.60;;;;;;5045059;28;20033;-62
2023/06/27 04:35:28;;;;;;;7.10;3.53;;;14.00;79.80;;;;;;5042531;28;20053;-61
2023/06/27 04:37:54;;;;;;;8.63;3.25;;;14.00;79.90;;;;;;5046754;28;20037;-61
2023/06/27 04:40:20;;;;;;;10.25;3.80;;;14.10;79.80;;;;;;5042410;28;20067;-61
2023/06/27 04:42:47;;;;;;;6.50;3.58;;;14.20;79.70;;;;;;5045157;28;20499;-61
2023/06/27 04:45:12;;;;;;;8.02;3.88;;;14.20;79.70;;;;;;5033844;28;20060;-61
2023/06/27 04:47:38;;;;;;;8.55;3.92;;;14.30;79.70;;;;;;5044307;28;21043;-61
2023/06/27 04:50:04;;;;;;;10.15;4.00;;;14.40;79.70;;;;;;5035217;28;20518;-61
2023/06/27 04:52:30;;;;;;;6.97;3.38;;;14.50;80.00;;;;;;5052414;28;20038;-62
2023/06/27 04:54:55;;;;;;;5.68;3.33;;;14.60;79.90;;;;;;5015443;28;20064;-62
2023/06/27 04:57:21;;;;;;;8.30;3.88;;;14.70;80.00;;;;;;5028725;28;20036;-62
2023/06/27 04:59:47;;;;;;;9.10;3.55;;;14.90;79.80;;;;;;5036848;28;20083;-64
2023/06/27 05:02:12;;;;;;;8.55;3.45;;;15.00;79.50;;;;;;5030608;28;20032;-62
2023/06/27 05:04:38;;;;;;;7.55;3.70;;;15.10;79.00;;;;;;5033606;28;20135;-61
2023/06/27 05:07:06;;;;;;;5.05;3.00;;;15.20;78.80;;;;;;5032339;28;20079;-62
2023/06/27 05:09:32;;;;;;;8.30;3.65;;;15.30;78.90;;;;;;5035674;28;20036;-61
2023/06/27 05:11:57;;;;;;;6.65;3.95;;;15.40;79.10;;;;;;5033775;28;20040;-62
2023/06/27 05:14:23;;;;;;;8.90;3.88;;;15.60;79.30;;;;;;5032818;28;20045;-62
2023/06/27 05:16:49;;;;;;;5.97;3.75;;;15.70;79.50;;;;;;5032816;28;20036;-62
2023/06/27 05:19:14;;;;;;;6.40;3.30;;;15.80;79.50;;;;;;5034605;28;20051;-61
2023/06/27 05:21:40;;;;;;;8.35;3.47;;;16.00;79.30;;;;;;5035842;28;20049;-62
2023/06/27 05:24:06;;;;;;;8.13;3.53;;;16.10;79.20;;;;;;5032299;28;20068;-61
2023/06/27 05:26:34;;;;;;;9.10;3.42;;;16.30;79.50;;;;;;5026371;28;20410;-62
2023/06/27 05:29:00;;;;;;;5.53;2.97;;;16.50;78.10;;;;;;5030316;28;20126;-62
2023/06/27 05:31:27;;;;;;;7.20;2.92;;;16.70;78.00;;;;;;5029859;28;20178;-62
2023/06/27 05:33:53;;;;;;;6.03;3.20;;;16.80;77.50;;;;;;5028137;28;20033;-62
2023/06/27 05:36:19;;;;;;;8.02;3.00;;;17.00;77.10;;;;;;5030494;28;20068;-63
2023/06/27 05:38:44;;;;;;;6.80;2.80;;;17.10;76.50;;;;;;5034007;28;20241;-62
2023/06/27 05:41:10;;;;;;;6.55;2.25;;;17.30;76.10;;;;;;5041534;28;20068;-62
2023/06/27 05:43:36;;;;;;;4.55;2.63;;;17.40;75.40;;;;;;5037800;28;20043;-63
2023/06/27 05:46:01;;;;;;;4.72;2.38;;;17.50;74.50;;;;;;5036474;28;20434;-62
2023/06/27 05:48:27;;;;;;;4.10;2.30;;;17.70;73.90;;;;;;5038134;28;20049;-61
2023/06/27 05:50:52;;;;;;;6.60;2.38;;;17.80;73.60;;;;;;5033413;28;20052;-62
2023/06/27 05:53:18;;;;;;;5.40;2.40;;;17.90;73.10;;;;;;5029810;28;20144;-62
2023/06/27 05:55:44;;;;;;;4.93;2.25;;;18.20;72.60;;;;;;5032557;28;20105;-62
2023/06/27 05:58:09;;;;;;;6.07;2.30;;;18.30;72.00;;;;;;5034996;28;20473;-61
2023/06/27 06:00:35;;;;;;;3.13;2.05;;;18.50;71.60;;;;;;5028546;28;20216;-62
2023/06/27 06:03:00;;;;;;;4.30;1.85;;;18.70;71.00;;;;;;5030328;28;20034;-62
2023/06/27 06:05:26;;;;;;;4.15;1.85;;;18.90;70.50;;;;;;5041933;28;20048;-62
2023/06/27 06:07:51;;;;;;;4.47;2.00;;;19.10;69.90;;;;;;5026179;28;20090;-62
2023/06/27 06:10:18;;;;;;;4.00;1.48;;;19.10;69.20;;;;;;5032941;28;20037;-63
2023/06/27 06:12:44;;;;;;;7.20;2.00;;;19.30;68.50;;;;;;5038365;28;20173;-62
2023/06/27 06:15:09;;;;;;;4.82;1.60;;;19.50;68.50;;;;;;5040886;28;20472;-63
2023/06/27 06:17:35;;;;;;;5.70;2.15;;;19.60;66.90;;;;;;5038798;28;20097;-62
2023/06/27 06:20:03;;;;;;;5.10;1.60;;;19.70;66.00;;;;;;5030915;28;20041;-62
2023/06/27 06:22:28;;;;;;;6.22;1.90;;;19.90;65.30;;;;;;5036550;28;20041;-61
2023/06/27 06:24:54;;;;;;;2.15;1.40;;;19.90;64.40;;;;;;5042946;28;20044;-61
2023/06/27 06:27:20;;;;;;;3.78;1.75;;;20.10;64.00;;;;;;5033751;28;20041;-62
2023/06/27 06:29:45;;;;;;;5.65;1.52;;;20.20;63.30;;;;;;5030289;28;20076;-63
2023/06/27 06:32:11;;;;;;;7.53;1.63;;;20.40;63.10;;;;;;5031842;28;20041;-63
2023/06/27 06:34:36;;;;;;;7.43;1.48;;;20.50;62.50;;;;;;5032948;28;20495;-62
2023/06/27 06:37:03;;;;;;;4.03;1.23;;;20.60;62.20;;;;;;5038666;28;20040;-62
2023/06/27 06:39:28;;;;;;;6.30;1.88;;;20.80;61.00;;;;;;5038021;28;20041;-64
2023/06/27 06:41:55;;;;;;;5.43;1.67;;;20.80;60.50;;;;;;5037308;28;20618;-61
2023/06/27 06:44:20;;;;;;;6.50;1.40;;;21.00;59.40;;;;;;5035487;28;20042;-62
2023/06/27 06:46:46;;;;;;;10.05;1.77;;;21.00;59.00;;;;;;5040890;28;20118;-62
2023/06/27 06:49:12;;;;;;;9.20;1.80;;;21.30;58.70;;;;;;5045764;28;20057;-63
2023/06/27 06:51:37;;;;;;;5.18;1.50;;;21.60;58.10;;;;;;5044434;28;20434;-63
2023/06/27 06:54:03;;;;;;;3.05;1.50;;;21.70;57.80;;;;;;5031338;28;20041;-64
2023/06/27 06:56:28;;;;;;;2.33;1.20;;;22.00;57.10;;;;;;5042502;28;20500;-62
2023/06/27 06:58:54;;;;;;;4.32;1.25;;;22.10;56.30;;;;;;5033575;28;20037;-63
2023/06/27 07:01:20;;;;;;;5.78;1.67;;;22.10;55.00;;;;;;5028044;28;20052;-62
2023/06/27 07:03:46;;;;;;;2.90;1.25;;;22.40;54.30;;;;;;5033660;28;20100;-62
2023/06/27 07:06:11;;;;;;;4.35;1.02;;;22.60;53.60;;;;;;5027575;28;20068;-63
2023/06/27 07:08:38;;;;;;;4.43;0.93;;;22.80;52.70;;;;;;5038058;28;20064;-64
2023/06/27 07:11:04;;;;;;;5.50;0.98;;;22.90;52.40;;;;;;5032039;28;20053;-62
2023/06/27 07:13:29;;;;;;;5.38;0.90;;;23.10;51.40;;;;;;5042534;28;20032;-64
2023/06/27 07:15:55;;;;;;;2.00;0.90;;;23.10;50.30;;;;;;5045629;28;20037;-64
2023/06/27 07:18:21;;;;;;;5.05;1.02;;;23.30;48.90;;;;;;5041799;28;20051;-63
2023/06/27 07:20:46;;;;;;;3.15;0.90;;;23.40;47.70;;;;;;5042979;28;20179;-62
2023/06/27 07:23:12;;;;;;;4.35;1.00;;;23.70;46.80;;;;;;5049367;28;20036;-63
2023/06/27 07:25:38;;;;;;;1.20;0.50;;;23.90;46.60;;;;;;5048255;28;20033;-63
2023/06/27 07:28:05;;;;;;;4.50;0.60;;;24.00;45.80;;;;;;5042828;28;20358;-63
2023/06/27 07:30:30;;;;;;;4.30;0.90;;;23.90;45.10;;;;;;5035871;28;20037;-63
2023/06/27 07:32:56;;;;;;;4.43;0.90;;;23.80;44.30;;;;;;5047407;28;20043;-63
2023/06/27 07:35:21;;;;;;;2.00;0.70;;;23.70;43.80;;;;;;5042358;28;20046;-61
2023/06/27 07:37:47;;;;;;;3.25;0.63;;;23.80;43.70;;;;;;5038281;28;20032;-63
2023/06/27 07:40:13;;;;;;;4.13;1.20;;;23.60;43.80;;;;;;5050043;28;20094;-62
2023/06/27 07:42:38;;;;;;;2.90;0.75;;;23.50;43.50;;;;;;5045788;28;20044;-61
2023/06/27 07:45:05;;;;;;;3.05;0.65;;;23.50;42.20;;;;;;5049154;28;20100;-62
2023/06/27 07:47:31;;;;;;;3.75;1.10;;;23.50;42.70;;;;;;5048929;28;20069;-62
2023/06/27 07:49:56;;;;;;;2.78;0.60;;;23.40;43.10;;;;;;5046963;28;20056;-64
2023/06/27 07:52:22;;;;;;;2.08;0.90;;;23.60;42.80;;;;;;5044994;28;20041;-63
2023/06/27 07:54:47;;;;;;;2.88;0.73;;;23.60;42.10;;;;;;5037896;28;20033;-63
2023/06/27 07:57:13;;;;;;;2.28;0.70;;;23.90;41.90;;;;;;5037002;28;20139;-64
2023/06/27 07:59:38;;;;;;;2.25;0.68;;;24.10;40.70;;;;;;5040947;28;20051;-62
2023/06/27 08:02:04;;;;;;;2.85;0.88;;;24.50;40.20;;;;;;5042413;28;20095;-64
2023/06/27 08:04:31;;;;;;;2.78;0.85;;;24.70;39.60;;;;;;5035759;28;20076;-62
2023/06/27 08:06:56;;;;;;;1.60;0.60;;;25.00;39.10;;;;;;5049464;28;20054;-62
2023/06/27 08:09:22;;;;;;;4.78;0.82;;;25.10;39.00;;;;;;5041225;28;20060;-63
2023/06/27 08:11:47;;;;;;;4.07;0.93;;;25.30;37.50;;;;;;5049546;28;20036;-62
2023/06/27 08:14:13;;;;;;;2.67;0.80;;;25.00;38.50;;;;;;5043520;28;20155;-63
2023/06/27 08:16:39;;;;;;;1.50;0.55;;;25.20;38.10;;;;;;5046706;28;20032;-63
2023/06/27 08:19:04;;;;;;;3.08;0.75;;;25.40;36.80;;;;;;5048874;28;20072;-63
2023/06/27 08:21:30;;;;;;;3.35;0.90;;;25.20;37.00;;;;;;5052406;28;20583;-62
2023/06/27 08:23:56;;;;;;;3.08;0.77;;;25.50;37.00;;;;;;5042193;28;20055;-64
2023/06/27 08:26:21;;;;;;;5.47;0.63;;;25.70;37.10;;;;;;5045626;28;20475;-64
2023/06/27 08:28:47;;;;;;;5.97;1.02;;;25.50;37.00;;;;;;5048040;28;20346;-63
2023/06/27 08:31:13;;;;;;;1.83;0.65;;;25.90;36.50;;;;;;5047186;28;20049;-63
2023/06/27 08:33:39;;;;;;;1.92;0.60;;;26.30;36.50;;;;;;5033692;28;20095;-63
2023/06/27 08:36:05;;;;;;;2.83;0.70;;;26.70;35.80;;;;;;5022081;28;20073;-64
2023/06/27 08:38:31;;;;;;;4.18;0.80;;;27.00;35.40;;;;;;5022864;28;20151;-63
2023/06/27 08:40:56;;;;;;;2.78;0.60;;;26.40;35.10;;;;;;5048717;28;20496;-63
2023/06/27 08:43:23;;;;;;;3.22;0.90;;;26.00;35.30;;;;;;5043322;28;20116;-63
2023/06/27 08:45:51;;;;;;;6.88;0.98;;;25.90;35.20;;;;;;5041625;28;20052;-61
2023/06/27 08:48:17;;;;;;;6.78;1.10;;;25.50;34.50;;;;;;5048525;28;20126;-61
2023/06/27 08:50:44;;;;;;;3.65;0.80;;;24.90;34.60;;;;;;5051077;28;20523;-62
2023/06/27 08:53:19;;;;;;;2.17;0.77;;;24.40;35.90;;;;;;5042865;28;20033;-62
2023/06/27 08:56:14;;;;;;;1.42;0.38;;;24.20;36.00;;;;;;5041325;28;20436;-62
2023/06/27 08:58:51;;;;;;;4.78;0.80;;;24.10;36.10;;;;;;5047505;28;20040;-64
2023/06/27 09:01:18;;;;;;;5.53;0.95;;;23.80;36.10;;;;;;5035703;28;20052;-62
2023/06/27 09:03:44;;;;;;;4.15;1.00;;;24.40;36.40;;;;;;5048207;28;20737;-64
2023/06/27 09:06:12;;;;;;;3.65;0.75;;;24.80;35.20;;;;;;5047096;28;20072;-62
2023/06/27 09:08:37;;;;;;;2.20;0.57;;;25.00;35.10;;;;;;5045662;28;20173;-62
2023/06/27 09:11:08;;;;;;;2.75;0.60;;;25.60;34.60;;;;;;5045219;28;20229;-63
2023/06/27 09:13:34;;;;;;;2.30;0.60;;;25.90;33.50;;;;;;5046502;28;20049;-62
2023/06/27 09:16:00;;;;;;;6.32;1.13;;;26.40;32.90;;;;;;5041380;28;20576;-62
2023/06/27 09:18:25;;;;;;;2.20;0.95;;;27.20;32.30;;;;;;5036811;28;20037;-63
2023/06/27 09:20:54;;;;;;;1.58;0.70;;;27.40;32.00;;;;;;5043577;28;20523;-61
2023/06/27 09:23:20;;;;;;;2.05;0.80;;;27.50;31.20;;;;;;5046744;28;20114;-64
2023/06/27 09:26:04;;;;;;;1.60;0.50;;;27.50;30.90;;;;;;5047306;28;20040;-62
2023/06/27 09:28:29;;;;;;;1.35;0.70;;;27.40;30.30;;;;;;5041645;28;20134;-62
2023/06/27 09:30:57;;;;;;;2.83;0.60;;;27.60;29.90;;;;;;5040369;28;20045;-63
2023/06/27 09:33:23;;;;;;;1.25;0.47;;;28.10;29.80;;;;;;5041129;28;20144;-62
2023/06/27 09:35:50;;;;;;;2.83;0.50;;;28.70;29.40;;;;;;5040346;28;20120;-64
2023/06/27 09:38:18;;;;;;;1.55;0.60;;;29.00;29.20;;;;;;5037160;28;20043;-64
2023/06/27 09:40:43;;;;;;;2.70;0.70;;;29.40;28.90;;;;;;5044224;28;20079;-62
2023/06/27 09:43:11;;;;;;;3.75;0.80;;;29.40;28.60;;;;;;5034622;28;20037;-62
2023/06/27 09:45:37;;;;;;;2.60;0.50;;;29.40;28.70;;;;;;5032823;28;20475;-61
2023/06/27 09:48:03;;;;;;;2.33;0.60;;;28.50;28.70;;;;;;5035221;28;20060;-60
2023/06/27 09:50:30;;;;;;;1.48;0.68;;;28.20;29.00;;;;;;5039215;28;20088;-62
2023/06/27 09:52:58;;;;;;;2.70;0.70;;;28.10;29.20;;;;;;5040398;28;20095;-62
2023/06/27 09:55:24;;;;;;;2.38;0.50;;;28.30;29.00;;;;;;5035605;28;20068;-62
2023/06/27 09:57:51;;;;;;;2.38;0.60;;;28.50;28.90;;;;;;5034702;28;20414;-63
2023/06/27 10:00:21;;;;;;;3.97;0.85;;;28.40;29.10;;;;;;5046499;28;20405;-63
2023/06/27 10:02:51;;;;;;;2.78;0.60;;;28.20;29.30;;;;;;5047154;28;20051;-62
2023/06/27 10:05:18;;;;;;;3.45;0.70;;;27.80;29.10;;;;;;5036597;28;20139;-63
2023/06/27 10:07:44;;;;;;;3.90;0.98;;;27.80;29.40;;;;;;5030216;28;20037;-64
2023/06/27 10:10:11;;;;;;;1.55;0.43;;;27.70;29.70;;;;;;5033442;28;20033;-62
2023/06/27 10:12:37;;;;;;;1.85;0.65;;;27.30;30.00;;;;;;5042455;28;20056;-63
2023/06/27 10:15:04;;;;;;;3.85;0.73;;;27.00;30.70;;;;;;5027103;28;20099;-63
2023/06/27 10:17:30;;;;;;;4.05;0.80;;;26.80;31.30;;;;;;5042610;28;20767;-63
2023/06/27 10:19:56;;;;;;;3.10;0.80;;;26.50;31.60;;;;;;5049735;28;20136;-62
2023/06/27 10:22:26;;;;;;;3.13;0.60;;;26.40;32.00;;;;;;5039997;28;20076;-63
2023/06/27 10:24:56;;;;;;;2.15;0.70;;;26.30;32.10;;;;;;5041215;28;20110;-64
2023/06/27 10:27:24;;;;;;;2.60;0.60;;;26.30;32.50;;;;;;5040774;28;20518;-64
2023/06/27 10:29:50;;;;;;;3.65;0.80;;;26.10;32.30;;;;;;5033423;28;20310;-64
2023/06/27 10:32:19;;;;;;;4.10;0.70;;;26.90;31.30;;;;;;5044353;28;20033;-63
2023/06/27 10:34:45;;;;;;;3.13;0.80;;;27.50;30.80;;;;;;5041049;28;20029;-63
2023/06/27 10:37:23;;;;;;;3.38;0.85;;;27.60;30.30;;;;;;5029095;28;20034;-63
2023/06/27 10:40:07;;;;;;;4.22;0.98;;;28.20;30.10;;;;;;5033046;28;20219;-63
2023/06/27 10:42:32;;;;;;;4.40;1.02;;;28.80;29.70;;;;;;5029553;28;20183;-63
2023/06/27 10:45:03;;;;;;;3.58;1.00;;;28.70;29.80;;;;;;5028706;28;20097;-64
2023/06/27 10:47:44;;;;;;;3.58;0.80;;;28.30;30.00;;;;;;5042443;28;20831;-63
2023/06/27 10:50:12;;;;;;;3.13;0.75;;;28.10;30.50;;;;;;5047855;28;20128;-63
2023/06/27 10:52:39;;;;;;;3.80;0.90;;;27.80;30.60;;;;;;5050890;28;20850;-63
2023/06/27 10:55:13;;;;;;;2.60;0.57;;;26.80;31.40;;;;;;5048474;28;20314;-63
2023/06/27 10:57:40;;;;;;;3.08;0.93;;;27.00;31.80;;;;;;5049791;28;20048;-63
2023/06/27 11:00:21;;;;;;;4.38;1.23;;;27.20;31.60;;;;;;5031100;28;20123;-62
2023/06/27 11:02:49;;;;;;;1.83;0.85;;;27.00;31.40;;;;;;5040897;28;20043;-62
2023/06/27 11:05:18;;;;;;;4.35;1.08;;;26.60;32.50;;;;;;5032820;28;20047;-63
2023/06/27 11:07:53;;;;;;;6.30;1.25;;;26.50;32.70;;;;;;5046658;28;20041;-64
2023/06/27 11:10:27;;;;;;;2.15;0.65;;;26.40;32.60;;;;;;5044906;28;20242;-63
2023/06/27 11:13:12;;;;;;;2.88;0.73;;;26.20;32.60;;;;;;5046637;28;20207;-64
2023/06/27 11:15:38;;;;;;;3.85;0.80;;;26.20;33.40;;;;;;5047188;28;20151;-64
2023/06/27 11:18:05;;;;;;;2.95;0.80;;;26.40;33.20;;;;;;5048241;28;20041;-63
2023/06/27 11:20:31;;;;;;;3.85;0.52;;;26.20;33.20;;;;;;5043445;28;20041;-63
2023/06/27 11:23:01;;;;;;;4.13;0.70;;;26.00;33.30;;;;;;5039803;28;20037;-62
2023/06/27 11:25:26;;;;;;;2.05;0.70;;;25.90;32.90;;;;;;5043712;28;20044;-64
2023/06/27 11:27:58;;;;;;;4.90;0.93;;;25.90;33.20;;;;;;5047754;28;20362;-64
2023/06/27 11:30:31;;;;;;;2.70;0.60;;;26.00;33.00;;;;;;5044922;28;20064;-63
2023/06/27 11:32:57;;;;;;;1.63;0.70;;;26.20;32.80;;;;;;5047138;28;20158;-63
2023/06/27 11:35:24;;;;;;;3.80;0.77;;;26.50;32.30;;;;;;5050643;28;20060;-64
2023/06/27 11:37:54;;;;;;;1.83;0.60;;;26.50;31.90;;;;;;5044045;28;20400;-62
2023/06/27 11:40:20;;;;;;;6.38;1.85;;;26.40;31.40;;;;;;5048199;28;20044;-64
2023/06/27 11:42:46;;;;;;;3.50;0.88;;;26.20;31.60;;;;;;5050838;28;20040;-63
2023/06/27 11:45:12;;;;;;;4.75;0.60;;;25.80;31.40;;;;;;5047211;28;20377;-62
2023/06/27 11:47:39;;;;;;;3.55;0.50;;;25.60;31.90;;;;;;5049807;28;20056;-63
2023/06/27 11:50:06;;;;;;;1.58;0.52;;;25.40;32.60;;;;;;5049884;28;20045;-60
2023/06/27 11:52:35;;;;;;;3.40;0.70;;;25.40;33.00;;;;;;5047907;28;20060;-60
2023/06/27 11:55:02;;;;;;;2.90;0.60;;;25.50;33.20;;;;;;5048186;28;20041;-63
2023/06/27 11:57:44;;;;;;;4.22;1.70;;;25.50;33.30;;;;;;5042771;28;20055;-63
2023/06/27 12:00:22;;;;;;;3.90;0.80;;;25.60;34.10;;;;;;5047718;28;20045;-63
2023/06/27 12:02:56;;;;;;;3.33;0.73;;;25.60;34.20;;;;;;5050745;28;20053;-62
2023/06/27 12:05:24;;;;;;;5.15;0.73;;;25.60;34.40;;;;;;5047014;28;20795;-64
2023/06/27 12:08:03;;;;;;;4.88;0.77;;;25.60;34.50;;;;;;5049299;28;20505;-64
2023/06/27 12:10:54;;;;;;;6.73;0.83;;;25.70;33.50;;;;;;5047347;28;20046;-64
2023/06/27 12:13:19;;;;;;;4.97;0.80;;;25.40;33.40;;;;;;5045185;28;20106;-63
2023/06/27 12:15:46;;;;;;;2.47;1.00;;;25.50;34.00;;;;;;5041854;28;20495;-62
2023/06/27 12:18:27;;;;;;;2.95;0.60;;;25.50;33.90;;;;;;5048222;28;20037;-64
2023/06/27 12:20:54;;;;;;;6.78;1.10;;;25.50;33.20;;;;;;5034497;28;20049;-63
2023/06/27 12:23:19;;;;;;;6.30;0.80;;;25.30;32.90;;;;;;5040939;28;20053;-63
2023/06/27 12:25:46;;;;;;;4.50;0.90;;;25.20;33.20;;;;;;5046500;28;20182;-62
2023/06/27 12:28:12;;;;;;;2.83;0.90;;;25.10;33.60;;;;;;5045226;28;20041;-62
2023/06/27 12:30:38;;;;;;;4.70;1.00;;;24.50;34.30;;;;;;5031682;28;20041;-61
2023/06/27 12:33:04;;;;;;;3.78;0.80;;;24.10;35.40;;;;;;5047057;28;20507;-62
2023/06/27 12:35:31;;;;;;;3.00;0.90;;;23.90;36.00;;;;;;5038885;28;20033;-62
2023/06/27 12:37:57;;;;;;;3.15;0.60;;;23.70;36.30;;;;;;5043264;28;20102;-62
2023/06/27 12:40:24;;;;;;;5.78;1.20;;;24.00;36.50;;;;;;5040233;28;20132;-63
2023/06/27 12:42:51;;;;;;;3.72;0.88;;;24.20;36.60;;;;;;5037960;28;20053;-62
2023/06/27 12:45:17;;;;;;;7.45;1.08;;;24.40;36.70;;;;;;5031627;28;20117;-63